Time;durP1;ratioP1;P1;durP2;ratioP2;P2;SDS_P1;SDS_P2;PMS_P1;PMS_P2;Temp;Humidity;BMP_temperature;BMP_pressure;BME280_temperature;BME280_humidity;BME280_pressure;Samples;Min_cycle;Max_cycle;Signal;HPM_P1;HPM_P2
2021/01/23 00:00:38;;;;;;;211.53;85.00;;;;;;;3.50;72.12;99894.16;5043585;28;20037;-66
2021/01/23 00:03:04;;;;;;;208.37;79.40;;;;;;;3.33;73.19;99894.56;5044101;28;20375;-68
2021/01/23 00:05:30;;;;;;;204.63;78.50;;;;;;;3.34;72.50;99895.38;5043524;28;20227;-64
2021/01/23 00:08:01;;;;;;;191.17;77.20;;;;;;;3.45;72.45;99890.19;5043855;28;20029;-68
2021/01/23 00:10:27;;;;;;;183.93;74.37;;;;;;;3.51;71.95;99885.34;5043387;28;20033;-69
2021/01/23 00:12:52;;;;;;;183.07;74.27;;;;;;;3.33;73.67;99891.94;5043283;28;20100;-68
2021/01/23 00:15:18;;;;;;;175.23;75.57;;;;;;;3.14;74.42;99886.38;5043332;28;20281;-69
2021/01/23 00:17:44;;;;;;;182.60;74.20;;;;;;;3.34;73.67;99884.91;5043350;28;20087;-66
2021/01/23 00:20:10;;;;;;;180.13;71.87;;;;;;;3.38;73.45;99892.44;5043099;28;20100;-64
2021/01/23 00:22:35;;;;;;;185.80;75.47;;;;;;;3.49;72.78;99891.66;5043184;28;20044;-69
2021/01/23 00:25:01;;;;;;;187.07;75.63;;;;;;;3.43;72.44;99892.94;5041945;28;20021;-64
2021/01/23 00:27:26;;;;;;;174.27;75.13;;;;;;;3.36;72.46;99899.56;5043043;28;20035;-64
2021/01/23 00:29:52;;;;;;;196.73;79.77;;;;;;;3.33;72.31;99888.50;5043478;28;20025;-63
2021/01/23 00:32:17;;;;;;;216.20;81.87;;;;;;;3.33;72.15;99889.31;5043090;28;20032;-63
2021/01/23 00:34:43;;;;;;;199.83;75.03;;;;;;;3.31;71.98;99885.16;5042956;28;20338;-68
2021/01/23 00:37:08;;;;;;;201.00;75.90;;;;;;;3.18;72.77;99895.69;5043083;28;20419;-64
2021/01/23 00:39:34;;;;;;;175.57;67.67;;;;;;;3.28;72.00;99891.44;5042877;28;20208;-69
2021/01/23 00:41:59;;;;;;;191.70;74.10;;;;;;;3.30;71.75;99888.72;5042806;28;20298;-68
2021/01/23 00:44:25;;;;;;;176.30;71.23;;;;;;;3.24;72.57;99892.59;5043178;28;20100;-68
2021/01/23 00:46:50;;;;;;;182.47;70.77;;;;;;;3.29;72.37;99890.50;5042932;28;20084;-69
2021/01/23 00:49:16;;;;;;;185.77;70.10;;;;;;;3.22;71.60;99873.56;5043151;28;20096;-69
2021/01/23 00:51:41;;;;;;;165.10;65.87;;;;;;;3.25;70.85;99885.59;5042719;28;20276;-69
2021/01/23 00:54:06;;;;;;;159.83;64.93;;;;;;;3.10;71.28;99874.44;5043028;28;20064;-63
2021/01/23 00:56:32;;;;;;;155.00;63.57;;;;;;;2.87;70.92;99891.78;5043036;28;20021;-69
2021/01/23 00:58:57;;;;;;;169.23;66.67;;;;;;;2.83;72.07;99877.25;5042932;28;20379;-64
2021/01/23 01:01:23;;;;;;;161.30;63.63;;;;;;;2.75;72.38;99890.03;5042718;28;20319;-69
2021/01/23 01:03:48;;;;;;;153.93;60.10;;;;;;;2.45;72.65;99862.50;5042904;28;20087;-68
2021/01/23 01:06:13;;;;;;;162.63;63.80;;;;;;;2.23;74.07;99863.16;5042783;28;20075;-64
2021/01/23 01:08:40;;;;;;;157.67;63.03;;;;;;;2.12;74.83;99844.78;5043028;28;20105;-64
2021/01/23 01:11:05;;;;;;;152.80;62.67;;;;;;;2.00;75.91;99861.28;5042478;28;20040;-68
2021/01/23 01:13:30;;;;;;;167.20;66.37;;;;;;;1.82;76.62;99867.75;5042773;28;20323;-68
2021/01/23 01:15:56;;;;;;;164.90;70.17;;;;;;;1.90;76.48;99862.84;5041367;28;20345;-63
2021/01/23 01:18:21;;;;;;;166.73;69.33;;;;;;;2.05;76.44;99869.63;5042474;28;20038;-69
2021/01/23 01:20:47;;;;;;;175.70;64.03;;;;;;;2.28;75.72;99867.25;5042270;28;20100;-66
2021/01/23 01:23:12;;;;;;;163.40;64.37;;;;;;;2.37;76.07;99869.22;5042867;28;20033;-69
2021/01/23 01:25:38;;;;;;;153.90;63.80;;;;;;;2.38;75.55;99857.81;5042376;28;20089;-68
2021/01/23 01:28:03;;;;;;;156.10;64.60;;;;;;;2.52;74.84;99845.44;5042734;28;20097;-63
2021/01/23 01:30:29;;;;;;;160.50;65.37;;;;;;;2.61;74.79;99862.25;5042433;28;20076;-64
2021/01/23 01:32:54;;;;;;;171.30;68.23;;;;;;;2.49;75.34;99856.13;5042330;28;20041;-64
2021/01/23 01:35:20;;;;;;;158.77;65.73;;;;;;;2.37;76.14;99874.44;5042530;28;20088;-64
2021/01/23 01:37:45;;;;;;;166.77;62.80;;;;;;;2.51;75.94;99864.69;5042435;28;20279;-68
2021/01/23 01:40:11;;;;;;;151.80;61.40;;;;;;;2.77;75.10;99865.47;5044925;28;20343;-69
2021/01/23 01:42:37;;;;;;;141.00;59.23;;;;;;;2.80;74.49;99861.78;5046012;28;20025;-69
2021/01/23 01:45:04;;;;;;;138.07;57.70;;;;;;;2.80;74.23;99859.16;5046466;28;20354;-69
2021/01/23 01:47:29;;;;;;;150.30;59.57;;;;;;;2.76;74.18;99849.88;5046180;28;20033;-69
2021/01/23 01:49:57;;;;;;;131.60;57.47;;;;;;;2.80;74.24;99851.31;5046416;28;20041;-63
2021/01/23 01:52:23;;;;;;;131.03;55.47;;;;;;;2.88;74.10;99849.00;5046362;28;20037;-64
2021/01/23 01:54:50;;;;;;;139.73;59.50;;;;;;;3.08;72.90;99853.63;5046418;28;20049;-69
2021/01/23 01:57:19;;;;;;;128.77;56.57;;;;;;;2.90;73.81;99847.09;5046001;28;20057;-69
2021/01/23 01:59:44;;;;;;;137.10;57.10;;;;;;;2.74;74.76;99838.69;5046282;28;20056;-69
2021/01/23 02:02:38;;;;;;;120.80;55.57;;;;;;;2.70;74.43;99834.63;5045988;28;20317;-64
2021/01/23 02:05:09;;;;;;;130.67;57.93;;;;;;;2.72;74.93;99830.97;5045783;28;20037;-69
2021/01/23 02:07:53;;;;;;;129.97;55.10;;;;;;;2.60;75.14;99821.38;5045731;28;20037;-64
2021/01/23 02:10:47;;;;;;;105.00;43.83;;;;;;;2.73;74.79;99830.00;5045713;28;20029;-64
2021/01/23 02:13:22;;;;;;;127.87;54.90;;;;;;;2.95;73.98;99834.53;5045336;28;20064;-68
2021/01/23 02:16:25;;;;;;;155.90;66.37;;;;;;;2.49;75.20;99831.75;5045575;28;20451;-64
2021/01/23 02:19:00;;;;;;;141.80;61.10;;;;;;;2.31;76.30;99833.06;5044190;28;20045;-64
2021/01/23 02:21:55;;;;;;;124.37;55.47;;;;;;;2.54;76.14;99829.66;5045543;28;20274;-69
2021/01/23 02:24:24;;;;;;;118.93;51.00;;;;;;;2.36;76.63;99820.50;5045632;28;20117;-64
2021/01/23 02:27:12;;;;;;;115.50;50.00;;;;;;;2.52;76.37;99811.47;5045368;28;20361;-63
2021/01/23 02:30:09;;;;;;;107.87;45.40;;;;;;;2.63;75.96;99812.47;5045903;28;20075;-63
2021/01/23 02:32:38;;;;;;;99.97;45.13;;;;;;;2.64;75.55;99840.28;5045189;28;20055;-64
2021/01/23 02:35:07;;;;;;;99.30;43.20;;;;;;;2.62;75.18;99834.34;5045259;28;20060;-68
2021/01/23 02:37:34;;;;;;;95.10;41.73;;;;;;;2.84;75.04;99824.00;5045202;28;20022;-69
2021/01/23 02:40:00;;;;;;;93.47;42.10;;;;;;;2.97;74.37;99818.72;5045128;28;20040;-69
2021/01/23 02:42:26;;;;;;;94.60;40.43;;;;;;;2.78;74.00;99820.06;5044885;28;20041;-63
2021/01/23 02:44:51;;;;;;;95.13;40.27;;;;;;;2.70;75.28;99818.94;5045639;28;20291;-69
2021/01/23 02:47:17;;;;;;;98.13;41.87;;;;;;;2.79;74.84;99808.66;5045157;28;20063;-63
2021/01/23 02:49:42;;;;;;;102.97;43.20;;;;;;;2.84;74.45;99813.56;5045151;28;20333;-69
2021/01/23 02:52:25;;;;;;;99.37;41.73;;;;;;;2.98;73.99;99800.31;5045039;28;20059;-69
2021/01/23 02:54:55;;;;;;;97.07;41.90;;;;;;;2.86;73.86;99807.25;5045340;28;20040;-64
2021/01/23 02:57:22;;;;;;;96.77;39.90;;;;;;;3.12;72.47;99799.28;5044946;28;20033;-63
2021/01/23 02:59:51;;;;;;;95.53;41.73;;;;;;;2.93;73.27;99815.50;5045272;28;20318;-64
2021/01/23 03:02:19;;;;;;;92.63;40.83;;;;;;;2.62;74.14;99823.88;5044821;28;20033;-63
2021/01/23 03:04:45;;;;;;;93.97;42.40;;;;;;;2.55;74.92;99834.78;5045063;28;20021;-69
2021/01/23 03:07:14;;;;;;;100.60;41.90;;;;;;;2.56;74.36;99806.88;5044798;28;20033;-69
2021/01/23 03:09:40;;;;;;;91.40;41.40;;;;;;;2.63;74.48;99802.03;5044905;28;20060;-63
2021/01/23 03:12:06;;;;;;;94.60;40.20;;;;;;;2.61;73.82;99804.75;5044671;28;20037;-68
2021/01/23 03:14:32;;;;;;;101.97;43.17;;;;;;;2.70;73.95;99780.56;5044888;28;20041;-64
2021/01/23 03:16:58;;;;;;;111.67;44.43;;;;;;;2.68;73.00;99795.53;5044541;28;20041;-68
2021/01/23 03:19:24;;;;;;;121.60;48.53;;;;;;;2.49;73.85;99787.34;5044419;28;20148;-63
2021/01/23 03:21:51;;;;;;;106.43;46.90;;;;;;;2.66;73.71;99778.28;5044408;28;20371;-64
2021/01/23 03:24:18;;;;;;;105.13;42.07;;;;;;;2.60;73.67;99766.50;5044727;28;20041;-63
2021/01/23 03:26:44;;;;;;;96.93;39.80;;;;;;;2.74;73.82;99778.56;5044367;28;20327;-69
2021/01/23 03:29:10;;;;;;;88.60;37.27;;;;;;;2.53;73.92;99787.00;5044606;28;20106;-64
2021/01/23 03:31:36;;;;;;;86.57;36.90;;;;;;;2.55;74.50;99785.13;5044099;28;20025;-63
2021/01/23 03:34:02;;;;;;;76.47;34.43;;;;;;;2.60;74.16;99792.63;5044125;28;20101;-63
2021/01/23 03:36:28;;;;;;;82.77;35.67;;;;;;;2.58;74.09;99778.00;5044186;28;20033;-64
2021/01/23 03:38:54;;;;;;;86.80;38.13;;;;;;;2.56;74.04;99785.94;5044359;28;20049;-69
2021/01/23 03:41:19;;;;;;;102.73;40.40;;;;;;;2.43;74.91;99780.75;5043858;28;20057;-64
2021/01/23 03:43:45;;;;;;;89.73;37.40;;;;;;;2.54;74.27;99785.22;5044476;28;20040;-63
2021/01/23 03:46:12;;;;;;;90.93;37.57;;;;;;;2.27;74.96;99790.63;5043920;28;20087;-64
2021/01/23 03:48:38;;;;;;;97.13;41.13;;;;;;;2.24;75.98;99783.03;5044102;28;20040;-69
2021/01/23 03:51:04;;;;;;;88.57;38.30;;;;;;;2.33;75.69;99771.91;5044068;28;20030;-64
2021/01/23 03:53:30;;;;;;;91.43;39.00;;;;;;;2.48;75.93;99764.75;5043799;28;20060;-64
2021/01/23 03:55:55;;;;;;;85.73;36.87;;;;;;;2.56;74.57;99768.50;5043690;28;20323;-68
2021/01/23 03:58:20;;;;;;;88.27;37.57;;;;;;;2.32;75.25;99780.69;5043933;28;20283;-68
2021/01/23 04:00:46;;;;;;;78.43;36.40;;;;;;;2.32;76.00;99769.41;5044218;28;20105;-63
2021/01/23 04:03:13;;;;;;;78.80;38.37;;;;;;;2.34;75.35;99780.59;5042029;28;20208;-64
2021/01/23 04:05:39;;;;;;;86.97;37.87;;;;;;;2.50;75.14;99789.00;5043525;28;20254;-64
2021/01/23 04:08:05;;;;;;;84.20;37.27;;;;;;;2.62;74.64;99782.06;5043699;28;20038;-69
2021/01/23 04:10:30;;;;;;;82.90;37.83;;;;;;;2.62;74.42;99771.59;5042113;28;20029;-69
2021/01/23 04:12:56;;;;;;;88.07;37.43;;;;;;;2.75;73.94;99785.47;5042214;28;20033;-68
2021/01/23 04:15:22;;;;;;;91.70;39.47;;;;;;;2.43;74.71;99779.94;5043372;28;20039;-64
2021/01/23 04:17:48;;;;;;;91.37;40.77;;;;;;;2.55;74.19;99764.22;5043685;28;20021;-68
2021/01/23 04:20:13;;;;;;;103.40;43.03;;;;;;;2.68;72.99;99774.59;5043156;28;20201;-63
2021/01/23 04:22:39;;;;;;;93.93;40.33;;;;;;;2.01;74.06;99760.25;5043204;28;20066;-68
2021/01/23 04:25:05;;;;;;;87.43;39.37;;;;;;;2.01;74.56;99766.31;5043239;28;20031;-64
2021/01/23 04:27:31;;;;;;;94.60;39.87;;;;;;;1.93;74.84;99753.81;5043213;28;20236;-69
2021/01/23 04:29:57;;;;;;;95.90;39.20;;;;;;;2.11;74.23;99770.00;5043633;28;20041;-64
2021/01/23 04:32:22;;;;;;;90.27;37.07;;;;;;;2.13;74.26;99775.09;5043063;28;20353;-64
2021/01/23 04:34:47;;;;;;;85.30;37.13;;;;;;;2.15;74.10;99768.00;5043443;28;20216;-64
2021/01/23 04:37:13;;;;;;;83.63;36.10;;;;;;;2.11;74.16;99759.53;5043135;28;20360;-63
2021/01/23 04:39:39;;;;;;;81.80;34.93;;;;;;;2.20;74.41;99752.81;5043366;28;20042;-69
2021/01/23 04:42:06;;;;;;;83.77;35.60;;;;;;;1.80;74.99;99747.75;5042848;28;20032;-69
2021/01/23 04:44:32;;;;;;;86.07;36.40;;;;;;;1.71;75.12;99753.63;5043292;28;20087;-64
2021/01/23 04:46:58;;;;;;;81.50;37.13;;;;;;;1.80;75.52;99755.59;5042938;28;20026;-64
2021/01/23 04:49:24;;;;;;;89.77;36.80;;;;;;;1.72;74.96;99744.00;5043161;28;20033;-69
2021/01/23 04:51:49;;;;;;;80.80;34.83;;;;;;;1.80;74.14;99754.75;5042778;28;20357;-69
2021/01/23 04:54:15;;;;;;;72.63;33.57;;;;;;;1.81;74.00;99744.22;5043118;28;20072;-69
2021/01/23 04:56:40;;;;;;;73.27;32.70;;;;;;;2.17;72.72;99751.28;5043196;28;20018;-64
2021/01/23 04:59:05;;;;;;;76.03;32.73;;;;;;;1.72;73.26;99736.19;5043137;28;20033;-64
2021/01/23 05:01:31;;;;;;;73.90;31.43;;;;;;;1.40;75.29;99741.00;5042681;28;20303;-68
2021/01/23 05:03:58;;;;;;;83.13;35.93;;;;;;;1.18;76.80;99745.06;5041750;28;20033;-68
2021/01/23 05:06:28;;;;;;;87.80;36.57;;;;;;;1.21;77.57;99744.84;5042684;28;20071;-63
2021/01/23 05:08:55;;;;;;;83.27;35.50;;;;;;;1.52;77.06;99742.78;5042617;28;20041;-69
2021/01/23 05:11:21;;;;;;;90.13;40.07;;;;;;;1.67;76.53;99748.72;5042369;28;20029;-69
2021/01/23 05:14:09;;;;;;;93.97;40.93;;;;;;;1.83;76.48;99729.28;5043167;28;20307;-64
2021/01/23 05:16:35;;;;;;;121.40;51.03;;;;;;;1.63;75.54;99735.03;5047062;28;20045;-68
2021/01/23 05:19:01;;;;;;;108.57;49.77;;;;;;;1.67;75.70;99746.09;5046591;28;20049;-68
2021/01/23 05:21:28;;;;;;;126.67;54.33;;;;;;;1.51;76.62;99735.88;5046623;28;20367;-64
2021/01/23 05:24:11;;;;;;;154.33;65.23;;;;;;;1.44;77.99;99709.38;5046881;28;20076;-63
2021/01/23 05:26:38;;;;;;;152.10;65.70;;;;;;;1.63;78.25;99713.31;5046622;28;20022;-64
2021/01/23 05:29:12;;;;;;;145.70;62.97;;;;;;;1.79;77.74;99737.44;5046769;28;20037;-64
2021/01/23 05:31:39;;;;;;;145.82;62.25;;;;;;;1.71;77.16;99726.69;5046758;28;20021;-63
2021/01/23 05:34:27;;;;;;;136.70;57.77;;;;;;;1.81;77.11;99732.94;5046701;28;20052;-63
2021/01/23 05:36:54;;;;;;;131.80;60.03;;;;;;;1.86;76.31;99723.00;5046356;28;20335;-69
2021/01/23 05:39:19;;;;;;;137.17;61.20;;;;;;;1.99;75.29;99707.31;5046638;28;20087;-69
2021/01/23 05:42:19;;;;;;;131.60;58.37;;;;;;;1.85;74.56;99734.38;5046151;28;20078;-64
2021/01/23 05:45:04;;;;;;;134.30;54.50;;;;;;;1.80;75.67;99741.72;5045152;28;20049;-68
2021/01/23 05:47:30;;;;;;;86.23;39.90;;;;;;;1.95;72.99;99739.81;5046568;28;20021;-64
2021/01/23 05:49:55;;;;;;;93.20;38.77;;;;;;;1.73;73.64;99756.97;5046540;28;20258;-68
2021/01/23 05:52:21;;;;;;;96.70;39.87;;;;;;;1.61;74.58;99752.59;5046112;28;20045;-64
2021/01/23 05:54:47;;;;;;;139.50;55.63;;;;;;;1.67;75.35;99746.09;5046374;28;20088;-68
2021/01/23 05:57:13;;;;;;;125.73;54.87;;;;;;;1.70;75.63;99736.28;5046136;28;20326;-64
2021/01/23 05:59:43;;;;;;;151.90;64.43;;;;;;;1.70;76.09;99733.69;5046302;28;20034;-64
2021/01/23 06:02:13;;;;;;;201.03;72.33;;;;;;;1.86;75.10;99744.72;5044791;28;20032;-65
2021/01/23 06:04:42;;;;;;;192.27;73.93;;;;;;;1.65;76.35;99748.00;5046319;28;20037;-65
2021/01/23 06:07:08;;;;;;;168.80;65.50;;;;;;;1.85;76.05;99756.09;5046155;28;20041;-63
2021/01/23 06:09:39;;;;;;;132.00;57.00;;;;;;;1.94;76.31;99772.91;5046174;28;20111;-69
2021/01/23 06:12:31;;;;;;;129.83;57.43;;;;;;;2.07;75.21;99752.00;5045529;28;20052;-64
2021/01/23 06:14:56;;;;;;;117.60;54.43;;;;;;;2.18;74.77;99739.03;5044719;28;20061;-64
2021/01/23 06:17:47;;;;;;;116.80;51.03;;;;;;;2.27;74.34;99745.38;5045848;28;20216;-64
2021/01/23 06:20:41;;;;;;;111.53;51.83;;;;;;;2.05;75.24;99746.03;5045287;28;20065;-68
2021/01/23 06:23:16;;;;;;;97.43;44.77;;;;;;;2.16;75.07;99746.16;5044475;28;20033;-69
2021/01/23 06:25:50;;;;;;;95.77;45.97;;;;;;;2.37;75.06;99742.00;5044963;28;20025;-69
2021/01/23 06:28:25;;;;;;;100.87;47.97;;;;;;;2.55;73.84;99735.44;5045590;28;20302;-64
2021/01/23 06:30:52;;;;;;;112.90;52.20;;;;;;;2.37;74.95;99739.41;5045531;28;20037;-68
2021/01/23 06:33:24;;;;;;;116.97;53.03;;;;;;;2.36;75.46;99721.22;5045388;28;20045;-69
2021/01/23 06:36:01;;;;;;;118.63;53.40;;;;;;;2.45;75.21;99737.06;5045505;28;20211;-63
2021/01/23 06:38:27;;;;;;;130.60;58.30;;;;;;;2.13;76.73;99726.31;5045628;28;20374;-64
2021/01/23 06:40:52;;;;;;;124.77;60.53;;;;;;;2.27;76.37;99714.88;5044974;28;20028;-64
2021/01/23 06:43:18;;;;;;;130.70;60.23;;;;;;;2.39;76.34;99716.59;5045251;28;20280;-64
2021/01/23 06:45:44;;;;;;;130.50;60.03;;;;;;;2.60;75.83;99716.81;5045085;28;20040;-64
2021/01/23 06:48:10;;;;;;;134.07;62.07;;;;;;;2.66;75.49;99733.84;5045233;28;20037;-64
2021/01/23 06:50:43;;;;;;;129.07;60.10;;;;;;;2.60;75.55;99732.50;5044991;28;20076;-64
2021/01/23 06:53:17;;;;;;;141.43;66.80;;;;;;;2.83;74.74;99720.34;5045008;28;20315;-64
2021/01/23 06:55:54;;;;;;;158.77;70.67;;;;;;;2.62;74.86;99721.94;5044757;28;20034;-69
2021/01/23 06:58:24;;;;;;;163.13;77.23;;;;;;;2.58;76.32;99736.19;5045357;28;20045;-64
2021/01/23 07:01:00;;;;;;;174.47;74.77;;;;;;;2.50;76.75;99710.59;5044782;28;20092;-64
2021/01/23 07:03:30;;;;;;;161.50;73.63;;;;;;;2.66;76.02;99720.75;5044782;28;20037;-68
2021/01/23 07:06:03;;;;;;;126.93;57.73;;;;;;;2.54;77.14;99720.72;5044708;28;20037;-63
2021/01/23 07:08:29;;;;;;;115.57;52.33;;;;;;;2.66;76.64;99712.91;5045300;28;20025;-64
2021/01/23 07:11:07;;;;;;;108.67;52.63;;;;;;;3.00;75.12;99706.03;5043317;28;20330;-63
2021/01/23 07:13:33;;;;;;;108.33;50.23;;;;;;;2.71;75.96;99705.56;5044347;28;20037;-69
2021/01/23 07:15:58;;;;;;;121.30;54.83;;;;;;;2.86;75.90;99691.38;5043421;28;20017;-68
2021/01/23 07:18:27;;;;;;;117.90;51.23;;;;;;;2.83;76.41;99705.50;5044501;28;20037;-64
2021/01/23 07:20:53;;;;;;;114.30;52.50;;;;;;;2.85;77.02;99701.00;5044384;28;20377;-64
2021/01/23 07:23:19;;;;;;;118.73;53.00;;;;;;;2.87;76.86;99687.81;5044538;28;20076;-68
2021/01/23 07:25:45;;;;;;;129.93;57.53;;;;;;;3.10;76.03;99701.75;5044469;28;20096;-64
2021/01/23 07:28:11;;;;;;;124.23;59.23;;;;;;;3.18;74.71;99681.13;5044500;28;20037;-64
2021/01/23 07:30:37;;;;;;;134.40;59.90;;;;;;;2.99;76.06;99686.03;5044170;28;20021;-69
2021/01/23 07:33:03;;;;;;;133.53;60.33;;;;;;;3.01;76.69;99695.44;5043031;28;20033;-68
2021/01/23 07:35:36;;;;;;;137.90;60.53;;;;;;;2.99;76.94;99684.25;5043051;28;20211;-68
2021/01/23 07:38:03;;;;;;;164.02;68.55;;;;;;;2.96;77.06;99683.66;5043550;28;20030;-64
2021/01/23 07:40:32;;;;;;;139.00;65.70;;;;;;;3.12;77.08;99679.81;5043960;28;20044;-64
2021/01/23 07:43:04;;;;;;;155.90;68.77;;;;;;;3.23;76.80;99683.38;5044042;28;20154;-64
2021/01/23 07:45:30;;;;;;;157.73;68.57;;;;;;;3.37;76.49;99676.16;5044245;28;20260;-69
2021/01/23 07:47:59;;;;;;;151.33;70.43;;;;;;;3.65;74.76;99681.84;5044063;28;20104;-68
2021/01/23 07:50:26;;;;;;;137.50;64.53;;;;;;;3.49;75.43;99672.59;5042661;28;20025;-64
2021/01/23 07:52:52;;;;;;;131.63;61.97;;;;;;;3.28;77.03;99686.47;5044132;28;20287;-64
2021/01/23 07:55:17;;;;;;;131.50;62.10;;;;;;;3.33;76.96;99684.34;5043721;28;20100;-64
2021/01/23 07:58:02;;;;;;;155.83;65.27;;;;;;;3.38;76.87;99672.56;5043763;28;20040;-64
2021/01/23 08:00:29;;;;;;;121.03;53.13;;;;;;;3.08;78.00;99667.03;5043588;28;20095;-69
2021/01/23 08:02:54;;;;;;;117.40;53.17;;;;;;;3.09;77.93;99664.31;5043682;28;20267;-69
2021/01/23 08:05:20;;;;;;;118.67;53.37;;;;;;;3.10;78.97;99670.38;5042410;28;20026;-64
2021/01/23 08:07:46;;;;;;;108.00;49.07;;;;;;;3.26;76.37;99649.97;5043642;28;20029;-64
2021/01/23 08:10:19;;;;;;;111.53;47.90;;;;;;;3.00;77.81;99657.16;5043448;28;20061;-68
2021/01/23 08:12:50;;;;;;;124.35;52.92;;;;;;;3.03;79.02;99675.25;5042224;28;20037;-63
2021/01/23 08:15:24;;;;;;;123.90;57.83;;;;;;;3.00;80.22;99665.00;5043337;28;20029;-69
2021/01/23 08:17:50;;;;;;;161.93;71.93;;;;;;;3.28;79.41;99676.03;5043550;28;20029;-68
2021/01/23 08:20:17;;;;;;;176.07;81.07;;;;;;;3.20;80.14;99674.81;5043085;28;20044;-69
2021/01/23 08:22:57;;;;;;;174.17;83.20;;;;;;;3.48;79.31;99681.38;5042283;28;20318;-64
2021/01/23 08:25:28;;;;;;;218.37;95.93;;;;;;;3.70;77.55;99666.63;5043160;28;20029;-64
2021/01/23 08:27:56;;;;;;;205.77;91.20;;;;;;;3.74;77.20;99670.66;5043493;28;20397;-64
2021/01/23 08:30:24;;;;;;;220.93;96.47;;;;;;;4.06;75.45;99676.81;5043447;28;20029;-64
2021/01/23 08:32:50;;;;;;;216.30;98.80;;;;;;;4.07;75.11;99694.19;5043039;28;20319;-64
2021/01/23 08:35:17;;;;;;;222.90;100.63;;;;;;;4.09;74.96;99675.72;5043020;28;20319;-64
2021/01/23 08:37:43;;;;;;;214.73;96.93;;;;;;;3.84;76.40;99674.22;5043145;28;20025;-69
2021/01/23 08:40:09;;;;;;;232.50;102.63;;;;;;;3.99;76.23;99666.94;5042884;28;20030;-64
2021/01/23 08:42:35;;;;;;;257.00;111.30;;;;;;;3.86;75.90;99672.31;5042817;28;20212;-69
2021/01/23 08:45:00;;;;;;;252.20;111.83;;;;;;;3.78;77.16;99670.31;5042935;28;20037;-68
2021/01/23 08:47:26;;;;;;;258.23;117.60;;;;;;;3.70;78.31;99679.72;5041831;28;20029;-64
2021/01/23 08:49:51;;;;;;;263.60;116.53;;;;;;;3.43;78.93;99661.75;5043182;28;20030;-64
2021/01/23 08:52:17;;;;;;;237.00;108.40;;;;;;;3.51;79.62;99656.75;5042865;28;20088;-68
2021/01/23 08:54:42;;;;;;;168.30;75.90;;;;;;;3.90;78.53;99651.94;5043148;28;20038;-64
2021/01/23 08:57:08;;;;;;;142.73;63.00;;;;;;;3.97;77.99;99648.72;5042950;28;20104;-68
2021/01/23 08:59:33;;;;;;;145.57;63.57;;;;;;;4.07;77.18;99649.66;5042669;28;20131;-64
2021/01/23 09:01:58;;;;;;;110.40;48.10;;;;;;;4.05;77.12;99645.50;5042675;28;20104;-69
2021/01/23 09:04:24;;;;;;;109.53;49.73;;;;;;;4.01;77.46;99642.28;5043151;28;20097;-64
2021/01/23 09:06:49;;;;;;;107.77;50.43;;;;;;;4.12;76.76;99644.03;5042803;28;20034;-64
2021/01/23 09:09:15;;;;;;;122.83;65.77;;;;;;;4.19;78.15;99636.53;5042537;28;20071;-68
2021/01/23 09:11:40;;;;;;;103.47;47.27;;;;;;;4.52;76.99;99628.53;5042392;28;20092;-68
2021/01/23 09:14:06;;;;;;;97.07;45.07;;;;;;;4.62;75.73;99639.94;5042898;28;20033;-64
2021/01/23 09:16:31;;;;;;;90.47;44.57;;;;;;;4.53;76.79;99622.34;5042673;28;20328;-68
2021/01/23 09:18:58;;;;;;;93.53;44.50;;;;;;;4.67;76.25;99636.94;5042399;28;20332;-64
2021/01/23 09:21:23;;;;;;;86.17;42.40;;;;;;;4.65;77.32;99629.19;5042837;28;20331;-64
2021/01/23 09:23:49;;;;;;;98.43;41.50;;;;;;;4.83;76.63;99613.72;5042748;28;20029;-63
2021/01/23 09:26:14;;;;;;;89.03;40.97;;;;;;;4.77;77.36;99620.31;5042563;28;20037;-63
2021/01/23 09:28:40;;;;;;;85.63;39.80;;;;;;;4.92;76.22;99617.34;5042705;28;20033;-69
2021/01/23 10:55:09;;;;;;;113.57;54.97;;;;;;;6.63;73.91;99476.91;5023362;28;20339;-64
2021/01/23 10:57:34;;;;;;;130.65;59.50;;;;;;;6.69;73.41;99479.81;5044823;28;20029;-68
2021/01/23 11:00:00;;;;;;;128.88;61.33;;;;;;;6.73;73.27;99483.81;5043662;28;20029;-64
2021/01/23 11:02:25;;;;;;;129.45;61.78;;;;;;;6.71;73.19;99480.47;5044917;28;20097;-64
2021/01/23 11:04:51;;;;;;;134.60;61.72;;;;;;;6.59;73.59;99493.97;5045162;28;20033;-63
2021/01/23 11:07:16;;;;;;;126.50;60.65;;;;;;;6.60;74.01;99475.41;5044773;28;20041;-64
2021/01/23 11:09:41;;;;;;;131.48;62.20;;;;;;;6.62;74.09;99489.25;5044970;28;20037;-64
2021/01/23 11:12:08;;;;;;;142.60;65.55;;;;;;;6.59;73.65;99489.53;5043160;28;20029;-69
2021/01/23 11:14:35;;;;;;;136.77;66.20;;;;;;;6.37;74.02;99480.16;5043531;28;20029;-64
2021/01/23 11:17:01;;;;;;;133.52;63.42;;;;;;;6.34;75.10;99474.34;5044542;28;20025;-65
2021/01/23 11:19:27;;;;;;;122.63;57.85;;;;;;;6.47;75.44;99477.50;5044807;28;20038;-64
2021/01/23 11:21:52;;;;;;;120.80;56.35;;;;;;;6.46;75.18;99461.88;5044424;28;20071;-63
2021/01/23 11:24:19;;;;;;;110.53;52.85;;;;;;;6.37;75.61;99447.78;5044724;28;20060;-64
2021/01/23 11:26:44;;;;;;;101.28;50.40;;;;;;;6.26;76.49;99440.06;5044455;28;20056;-68
2021/01/23 11:29:10;;;;;;;112.35;51.88;;;;;;;6.29;76.87;99459.00;5044271;28;20048;-64
2021/01/23 11:31:35;;;;;;;103.97;50.70;;;;;;;6.27;75.83;99447.81;5044235;28;20043;-68
2021/01/23 11:34:00;;;;;;;103.22;51.75;;;;;;;6.38;76.07;99438.91;5044412;28;20033;-68
2021/01/23 11:36:26;;;;;;;104.50;52.05;;;;;;;6.61;74.81;99434.13;5043127;28;20239;-68
2021/01/23 11:38:52;;;;;;;112.10;52.75;;;;;;;6.44;74.83;99427.81;5044038;28;20209;-68
2021/01/23 11:41:17;;;;;;;109.10;52.67;;;;;;;6.53;75.49;99420.88;5043954;28;20037;-65
2021/01/23 11:43:43;;;;;;;113.63;58.50;;;;;;;6.57;75.39;99420.44;5044390;28;20223;-64
2021/01/23 11:46:09;;;;;;;105.10;52.65;;;;;;;6.55;75.41;99424.19;5044533;28;20021;-68
2021/01/23 11:48:34;;;;;;;114.07;55.92;;;;;;;6.59;75.09;99412.41;5044102;28;20040;-64
2021/01/23 11:50:59;;;;;;;109.90;55.08;;;;;;;6.66;74.72;99402.97;5043951;28;20219;-70
2021/01/23 11:53:25;;;;;;;121.32;55.70;;;;;;;6.75;75.16;99398.63;5043968;28;20033;-69
2021/01/23 11:55:50;;;;;;;127.25;56.88;;;;;;;6.84;74.00;99403.84;5043579;28;20382;-68
2021/01/23 11:58:17;;;;;;;102.05;50.67;;;;;;;6.72;74.40;99389.22;5043928;28;20323;-64
2021/01/23 12:00:42;;;;;;;92.18;46.75;;;;;;;6.75;73.59;99386.31;5043770;28;20029;-64
2021/01/23 12:03:08;;;;;;;84.72;42.75;;;;;;;6.57;74.49;99386.25;5044006;28;20039;-64
2021/01/23 12:05:33;;;;;;;88.93;42.63;;;;;;;6.57;75.09;99380.97;5043860;28;20021;-64
2021/01/23 12:08:00;;;;;;;96.82;47.10;;;;;;;6.55;75.25;99382.09;5043943;28;20037;-69
2021/01/23 12:10:25;;;;;;;89.85;46.70;;;;;;;6.52;74.79;99363.97;5043347;28;20307;-64
2021/01/23 12:12:51;;;;;;;99.63;51.33;;;;;;;6.50;74.52;99369.38;5043366;28;20024;-68
2021/01/23 12:15:16;;;;;;;114.90;57.13;;;;;;;6.44;74.24;99372.59;5043288;28;20029;-64
2021/01/23 12:17:43;;;;;;;114.82;56.30;;;;;;;6.51;73.58;99347.38;5043394;28;20026;-68
2021/01/23 12:20:10;;;;;;;118.75;57.67;;;;;;;6.77;73.07;99344.06;5042107;28;20017;-68
2021/01/23 12:22:37;;;;;;;120.90;55.17;;;;;;;6.69;73.07;99352.69;5042832;28;20265;-64
2021/01/23 12:25:08;;;;;;;120.40;52.20;;;;;;;6.56;73.92;99346.94;5043168;28;20025;-69
2021/01/23 12:27:34;;;;;;;98.18;49.10;;;;;;;6.61;73.16;99334.16;5043240;28;20025;-64
2021/01/23 12:30:00;;;;;;;98.40;47.95;;;;;;;6.77;71.88;99325.63;5043154;28;20060;-64
2021/01/23 12:32:26;;;;;;;101.25;47.35;;;;;;;6.80;72.24;99326.16;5043108;28;20029;-68
2021/01/23 12:34:51;;;;;;;93.43;45.40;;;;;;;6.72;72.65;99329.53;5042153;28;20025;-64
2021/01/23 12:37:16;;;;;;;87.13;43.60;;;;;;;6.81;71.85;99311.19;5043223;28;20307;-70
2021/01/23 12:39:42;;;;;;;87.70;42.42;;;;;;;6.86;71.71;99315.03;5043284;28;20113;-68
2021/01/23 12:42:07;;;;;;;92.07;42.53;;;;;;;6.71;71.78;99319.97;5043037;28;20096;-64
2021/01/23 12:44:33;;;;;;;87.00;41.67;;;;;;;6.84;71.69;99313.53;5043273;28;20025;-68
2021/01/23 12:46:58;;;;;;;90.82;46.58;;;;;;;6.87;70.61;99300.91;5041907;28;20055;-68